Time;durP1;ratioP1;P1;durP2;ratioP2;P2;SDS_P1;SDS_P2;PMS_P1;PMS_P2;Temp;Humidity;BMP_temperature;BMP_pressure;BME280_temperature;BME280_humidity;BME280_pressure;Samples;Min_cycle;Max_cycle;Signal;HPM_P1;HPM_P2
2022/07/12 00:01:10;;;;;;;2.63;1.20;;;23.40;61.10;;;;;;5112864;28;20452;-71
2022/07/12 00:03:36;;;;;;;4.68;1.40;;;23.40;61.00;;;;;;5112597;28;20466;-70
2022/07/12 00:06:03;;;;;;;6.25;1.85;;;23.40;60.30;;;;;;5112431;28;20028;-70
2022/07/12 00:08:29;;;;;;;6.93;1.45;;;23.40;60.10;;;;;;5112614;28;20034;-70
2022/07/12 00:10:55;;;;;;;3.97;1.20;;;23.40;59.80;;;;;;5112593;28;20036;-70
2022/07/12 00:13:20;;;;;;;5.75;1.15;;;23.50;58.80;;;;;;5112520;28;20038;-70
2022/07/12 00:15:46;;;;;;;4.63;1.33;;;23.50;57.90;;;;;;5112358;28;20070;-70
2022/07/12 00:18:12;;;;;;;4.38;1.20;;;23.50;57.20;;;;;;5112471;28;20026;-69
2022/07/12 00:20:37;;;;;;;3.95;1.20;;;23.50;57.00;;;;;;5112429;28;20035;-69
2022/07/12 00:23:04;;;;;;;3.20;1.10;;;23.60;56.50;;;;;;5112560;28;20039;-70
2022/07/12 00:25:30;;;;;;;2.50;1.25;;;23.60;56.10;;;;;;5112508;28;20024;-71
2022/07/12 00:27:56;;;;;;;4.90;1.35;;;23.60;55.70;;;;;;5112498;28;20042;-71
2022/07/12 00:30:22;;;;;;;4.05;0.93;;;23.60;55.10;;;;;;5112194;28;20028;-70
2022/07/12 00:32:48;;;;;;;4.35;1.38;;;23.60;54.60;;;;;;5112240;28;20024;-71
2022/07/12 00:35:14;;;;;;;2.72;1.30;;;23.60;54.40;;;;;;5112582;28;20039;-70
2022/07/12 00:37:40;;;;;;;5.43;1.10;;;23.60;54.40;;;;;;5112215;28;20020;-70
2022/07/12 00:40:08;;;;;;;2.22;1.08;;;23.60;54.20;;;;;;5112567;28;20504;-71
2022/07/12 00:42:34;;;;;;;3.35;1.05;;;23.60;53.90;;;;;;5112235;28;20023;-69
2022/07/12 00:45:01;;;;;;;6.25;1.48;;;23.60;53.70;;;;;;5112420;28;20032;-70
2022/07/12 00:47:43;;;;;;;2.97;1.05;;;23.60;53.40;;;;;;5112532;28;20035;-70
2022/07/12 00:50:14;;;;;;;3.20;1.17;;;23.60;53.10;;;;;;5112340;28;20071;-70
2022/07/12 00:52:42;;;;;;;2.85;1.10;;;23.60;52.70;;;;;;5112375;28;20059;-69
2022/07/12 00:55:09;;;;;;;2.20;1.00;;;23.60;52.50;;;;;;5111679;28;20398;-70
2022/07/12 00:57:36;;;;;;;2.13;0.98;;;23.50;52.40;;;;;;5110977;28;20051;-70
2022/07/12 01:00:05;;;;;;;3.65;1.20;;;23.50;52.60;;;;;;5109268;28;20039;-70
2022/07/12 01:02:32;;;;;;;4.18;1.20;;;23.50;52.70;;;;;;5109323;28;20028;-70
2022/07/12 01:04:58;;;;;;;3.55;1.05;;;23.50;52.70;;;;;;5110231;28;20039;-70
2022/07/12 01:07:25;;;;;;;2.03;1.08;;;23.50;52.80;;;;;;5111388;28;20024;-69
2022/07/12 01:09:53;;;;;;;5.00;1.20;;;23.50;52.80;;;;;;5111535;28;20513;-68
2022/07/12 01:12:20;;;;;;;5.20;1.10;;;23.50;52.80;;;;;;5112119;28;20059;-69
2022/07/12 01:14:47;;;;;;;5.22;1.10;;;23.40;52.60;;;;;;5111924;28;20145;-69
2022/07/12 01:17:13;;;;;;;2.35;1.15;;;23.40;52.70;;;;;;5111918;28;20042;-69
2022/07/12 01:19:40;;;;;;;3.22;1.25;;;23.30;52.70;;;;;;5111642;28;20512;-69
2022/07/12 01:22:09;;;;;;;2.42;1.00;;;23.30;52.90;;;;;;5111533;28;20034;-69
2022/07/12 01:24:36;;;;;;;3.10;1.00;;;23.30;53.20;;;;;;5111834;28;20077;-70
2022/07/12 01:27:06;;;;;;;3.70;1.00;;;23.20;53.20;;;;;;5111683;28;20028;-69
2022/07/12 01:29:32;;;;;;;4.15;1.10;;;23.20;53.70;;;;;;5111493;28;20503;-69
2022/07/12 01:32:41;;;;;;;3.17;1.23;;;23.20;53.80;;;;;;5111805;28;20028;-69
2022/07/12 01:35:05;;;;;;;1.95;1.33;;;23.20;54.30;;;;;;5109351;28;20043;-70
2022/07/12 01:37:35;;;;;;;5.23;1.67;;;23.10;54.80;;;;;;5115521;28;20085;-69
2022/07/12 01:40:02;;;;;;;3.78;1.20;;;23.10;55.00;;;;;;5115411;28;20088;-69
2022/07/12 01:42:30;;;;;;;3.45;1.20;;;23.10;55.30;;;;;;5115019;28;20028;-68
2022/07/12 01:44:56;;;;;;;5.43;1.30;;;23.10;55.80;;;;;;5115241;28;20032;-69
2022/07/12 01:47:24;;;;;;;3.03;1.25;;;23.10;56.10;;;;;;5115153;28;20035;-70
2022/07/12 01:49:50;;;;;;;2.38;1.27;;;23.10;56.50;;;;;;5115288;28;20427;-70
2022/07/12 01:52:17;;;;;;;5.55;1.00;;;23.10;57.50;;;;;;5114850;28;20039;-69
2022/07/12 01:54:43;;;;;;;3.58;1.10;;;23.00;57.00;;;;;;5115296;28;20126;-69
2022/07/12 01:57:09;;;;;;;3.75;1.40;;;23.00;57.40;;;;;;5114612;28;20050;-70
2022/07/12 01:59:35;;;;;;;3.67;1.30;;;23.00;57.40;;;;;;5115044;28;20462;-69
2022/07/12 02:02:02;;;;;;;2.83;1.10;;;23.00;57.10;;;;;;5114614;28;20040;-69
2022/07/12 02:04:28;;;;;;;4.20;1.13;;;23.00;56.70;;;;;;5115066;28;20051;-69
2022/07/12 02:06:55;;;;;;;7.05;1.10;;;23.00;56.60;;;;;;5114961;28;20432;-69
2022/07/12 02:09:21;;;;;;;5.03;1.20;;;22.90;56.10;;;;;;5114754;28;20063;-69
2022/07/12 02:11:47;;;;;;;3.72;1.15;;;22.90;56.00;;;;;;5114669;28;20066;-69
2022/07/12 02:14:13;;;;;;;2.47;1.00;;;22.90;56.00;;;;;;5114171;28;20039;-69
2022/07/12 02:16:40;;;;;;;2.35;1.20;;;22.80;56.00;;;;;;5114588;28;20039;-69
2022/07/12 02:19:06;;;;;;;3.65;1.13;;;22.80;55.70;;;;;;5114735;28;20363;-69
2022/07/12 02:21:33;;;;;;;3.60;1.08;;;22.80;55.40;;;;;;5114644;28;20077;-69
2022/07/12 02:23:59;;;;;;;3.65;1.10;;;22.80;55.10;;;;;;5114379;28;20047;-70
2022/07/12 02:26:25;;;;;;;2.03;1.20;;;22.80;54.80;;;;;;5114224;28;20028;-70
2022/07/12 02:28:51;;;;;;;2.60;1.20;;;22.80;54.90;;;;;;5114375;28;20039;-69
2022/07/12 02:31:16;;;;;;;4.80;1.92;;;22.80;55.80;;;;;;5114536;28;20446;-69
2022/07/12 02:33:42;;;;;;;4.13;1.40;;;22.80;56.20;;;;;;5114411;28;20047;-69
2022/07/12 02:36:08;;;;;;;5.43;1.40;;;22.70;56.60;;;;;;5114299;28;20569;-69
2022/07/12 02:38:34;;;;;;;3.95;1.50;;;22.70;56.50;;;;;;5114133;28;20118;-69
2022/07/12 02:40:59;;;;;;;4.90;1.40;;;22.70;56.70;;;;;;5114164;28;20039;-70
2022/07/12 02:43:27;;;;;;;3.00;1.10;;;22.70;56.60;;;;;;5114082;28;20430;-69
2022/07/12 02:45:57;;;;;;;2.88;1.10;;;22.70;56.50;;;;;;5114082;28;20081;-70
2022/07/12 02:48:23;;;;;;;2.42;1.10;;;22.60;56.40;;;;;;5113909;28;20043;-70
2022/07/12 02:50:49;;;;;;;3.38;1.15;;;22.60;56.40;;;;;;5113943;28;20039;-70
2022/07/12 02:53:15;;;;;;;4.18;1.63;;;22.60;56.10;;;;;;5114013;28;20031;-70
2022/07/12 02:55:41;;;;;;;4.75;1.20;;;22.50;56.40;;;;;;5114090;28;20084;-69
2022/07/12 02:58:07;;;;;;;7.82;1.50;;;22.60;56.60;;;;;;5113606;28;20096;-69
2022/07/12 03:00:34;;;;;;;2.92;1.30;;;22.50;56.70;;;;;;5113642;28;20059;-70
2022/07/12 03:03:00;;;;;;;2.00;0.95;;;22.60;56.90;;;;;;5113598;28;20035;-70
2022/07/12 03:05:26;;;;;;;4.07;1.27;;;22.50;57.10;;;;;;5113481;28;20080;-70
2022/07/12 03:07:52;;;;;;;5.68;1.42;;;22.50;57.20;;;;;;5113960;28;20035;-70
2022/07/12 03:10:18;;;;;;;5.47;1.33;;;22.50;57.70;;;;;;5113720;28;20047;-70
2022/07/12 03:12:44;;;;;;;3.50;1.30;;;22.50;57.80;;;;;;5113612;28;20028;-71
2022/07/12 03:15:10;;;;;;;2.08;0.98;;;22.40;57.70;;;;;;5113144;28;20071;-68
2022/07/12 03:17:36;;;;;;;2.22;1.20;;;22.50;57.40;;;;;;5113334;28;20038;-69
2022/07/12 03:20:04;;;;;;;3.45;1.35;;;22.40;56.90;;;;;;5113221;28;20051;-69
2022/07/12 03:22:30;;;;;;;5.32;1.30;;;22.40;56.80;;;;;;5113054;28;20505;-69
2022/07/12 03:24:56;;;;;;;2.38;1.35;;;22.40;56.80;;;;;;5113234;28;20042;-69
2022/07/12 03:27:22;;;;;;;3.20;1.88;;;22.30;56.60;;;;;;5094711;28;20543;-69
2022/07/12 03:29:47;;;;;;;4.45;1.50;;;22.30;57.00;;;;;;5113124;28;20044;-69
2022/07/12 03:32:13;;;;;;;2.95;1.30;;;22.30;56.40;;;;;;5112977;28;20027;-69
2022/07/12 03:34:39;;;;;;;2.70;1.20;;;22.30;56.40;;;;;;5112945;28;20096;-70
2022/07/12 03:37:04;;;;;;;4.78;1.60;;;22.30;56.60;;;;;;5112737;28;20401;-70
2022/07/12 03:39:30;;;;;;;4.38;1.70;;;22.30;57.00;;;;;;5112736;28;20062;-70
2022/07/12 06:26:17;;;;;;;3.00;1.02;;;23.60;50.90;;;;;;5132293;27;20102;-75
2022/07/12 06:28:43;;;;;;;7.57;1.40;;;23.70;51.00;;;;;;5113292;28;20055;-75
2022/07/12 06:31:08;;;;;;;5.78;1.08;;;23.70;50.70;;;;;;5115166;28;20087;-76
2022/07/12 07:58:53;;;;;;;6.95;1.02;;;25.10;48.20;;;;;;6219179;22;1348444;-74
2022/07/12 08:01:18;;;;;;;5.82;0.90;;;25.10;47.60;;;;;;6253895;22;20000;-75
2022/07/12 08:03:44;;;;;;;1.85;0.77;;;25.20;47.00;;;;;;6253725;22;20012;-74
2022/07/12 08:06:10;;;;;;;2.42;0.90;;;25.20;46.60;;;;;;6254095;22;20067;-74
2022/07/12 08:08:35;;;;;;;7.85;1.10;;;25.20;47.20;;;;;;6254049;22;20015;-74
2022/07/12 08:11:01;;;;;;;3.65;0.75;;;25.30;47.60;;;;;;6254599;22;20415;-74
2022/07/12 08:13:27;;;;;;;5.45;0.90;;;25.40;47.10;;;;;;6254926;22;20077;-73
2022/07/12 08:15:52;;;;;;;2.15;0.88;;;25.40;46.60;;;;;;6254194;22;20058;-74
2022/07/12 08:18:18;;;;;;;3.13;1.02;;;25.40;45.70;;;;;;6253815;22;20023;-73
2022/07/12 08:20:44;;;;;;;1.52;0.80;;;25.50;45.70;;;;;;6254449;22;20054;-74
2022/07/12 08:23:10;;;;;;;4.72;0.80;;;25.50;46.40;;;;;;6254234;22;20054;-74
2022/07/12 08:25:35;;;;;;;2.75;1.00;;;25.50;46.40;;;;;;6253924;22;20010;-72
2022/07/12 08:28:01;;;;;;;9.73;1.00;;;25.50;46.60;;;;;;6254132;22;20000;-73
2022/07/12 08:30:27;;;;;;;7.95;0.95;;;25.60;46.10;;;;;;6253944;22;20004;-74
2022/07/12 08:32:54;;;;;;;1.83;0.82;;;25.60;46.00;;;;;;6254272;22;20075;-74
2022/07/12 08:35:20;;;;;;;5.15;1.08;;;25.70;46.10;;;;;;6254121;22;20004;-74
2022/07/12 08:37:46;;;;;;;1.58;0.70;;;25.70;45.60;;;;;;6254024;22;20003;-74
2022/07/12 08:40:11;;;;;;;0.90;0.63;;;25.80;45.30;;;;;;6253662;22;20067;-74
2022/07/12 08:42:41;;;;;;;3.35;0.80;;;25.80;45.30;;;;;;6254100;23;20014;-73
2022/07/12 08:45:08;;;;;;;1.85;0.95;;;25.90;45.00;;;;;;6251857;22;20008;-74
2022/07/12 08:47:33;;;;;;;5.18;0.90;;;25.90;44.60;;;;;;6247068;22;20004;-73
2022/07/12 08:50:19;;;;;;;1.63;0.80;;;26.00;45.00;;;;;;6247352;22;20324;-73
2022/07/12 08:52:47;;;;;;;2.67;1.02;;;26.10;44.40;;;;;;6247201;22;20004;-72
2022/07/12 08:55:33;;;;;;;1.60;1.00;;;26.10;44.60;;;;;;6246938;22;20031;-73
2022/07/12 08:58:06;;;;;;;2.45;0.90;;;26.20;44.20;;;;;;6246849;22;20008;-73
2022/07/12 09:00:32;;;;;;;1.92;0.90;;;26.30;44.70;;;;;;6246704;22;20307;-73
2022/07/12 09:03:03;;;;;;;6.55;0.93;;;26.40;44.40;;;;;;6246558;22;20007;-74
2022/07/12 09:05:30;;;;;;;3.85;0.80;;;26.40;43.70;;;;;;6247089;22;20498;-73
2022/07/12 09:08:09;;;;;;;2.85;0.80;;;26.50;43.20;;;;;;6247023;22;19996;-73
2022/07/12 09:10:56;;;;;;;5.10;0.93;;;26.40;43.00;;;;;;6247084;22;20348;-73
2022/07/12 09:13:52;;;;;;;1.15;0.50;;;26.50;42.80;;;;;;6246351;23;20083;-74
2022/07/12 09:16:21;;;;;;;2.92;0.80;;;26.50;42.60;;;;;;6246886;22;20323;-73
2022/07/12 09:18:48;;;;;;;3.20;0.93;;;26.40;42.40;;;;;;6247153;22;20004;-73
2022/07/12 09:21:27;;;;;;;2.78;0.80;;;26.40;42.90;;;;;;6246692;22;20008;-73
2022/07/12 09:23:58;;;;;;;4.53;1.00;;;26.40;43.00;;;;;;6246816;22;20087;-74
2022/07/12 09:26:33;;;;;;;4.03;1.00;;;26.30;42.80;;;;;;6247010;22;20004;-73
2022/07/12 09:29:10;;;;;;;2.03;0.90;;;26.40;42.70;;;;;;6247076;22;20024;-73
2022/07/12 09:37:19;;;;;;;6.00;0.80;;;26.50;41.40;;;;;;6246787;23;20066;-73
2022/07/12 09:39:45;;;;;;;5.68;0.95;;;26.50;41.40;;;;;;6246928;22;20059;-74
2022/07/12 09:42:12;;;;;;;2.10;1.00;;;26.60;42.30;;;;;;6245770;22;20074;-73
2022/07/12 09:44:39;;;;;;;3.75;1.00;;;26.60;43.10;;;;;;6246177;22;20016;-74
2022/07/12 09:47:13;;;;;;;4.03;1.10;;;26.70;42.40;;;;;;6246884;22;20424;-74
2022/07/12 09:49:39;;;;;;;6.70;1.30;;;26.80;43.00;;;;;;6246689;22;20051;-74
2022/07/12 09:52:10;;;;;;;9.52;1.20;;;26.90;42.80;;;;;;6245971;22;20323;-75
2022/07/12 09:54:40;;;;;;;12.50;1.40;;;27.00;42.70;;;;;;6246345;22;20371;-75
2022/07/12 09:57:33;;;;;;;7.85;1.33;;;27.10;42.60;;;;;;6245875;22;20039;-74
2022/07/12 10:00:00;;;;;;;4.18;1.30;;;27.10;42.60;;;;;;6237992;23;20465;-74
2022/07/12 10:02:26;;;;;;;2.13;1.10;;;27.10;42.90;;;;;;6246327;22;20004;-74
2022/07/12 10:04:52;;;;;;;5.75;1.17;;;27.10;42.40;;;;;;6246581;22;20034;-73
2022/07/12 10:07:19;;;;;;;7.78;1.15;;;27.10;42.10;;;;;;6246232;22;19997;-73
2022/07/12 10:09:48;;;;;;;5.90;1.05;;;27.20;43.00;;;;;;6246169;22;20039;-75
2022/07/12 10:12:18;;;;;;;3.20;1.00;;;27.20;42.70;;;;;;6246285;22;20050;-74
2022/07/12 10:14:45;;;;;;;3.58;1.00;;;27.20;42.70;;;;;;6246006;22;20046;-75
2022/07/12 10:17:13;;;;;;;5.65;1.17;;;27.30;42.70;;;;;;6245760;22;20010;-73
2022/07/12 10:19:39;;;;;;;3.47;1.25;;;27.40;43.00;;;;;;6246293;22;19996;-75
2022/07/12 10:22:18;;;;;;;2.63;1.10;;;27.40;42.70;;;;;;6246705;22;20008;-74
2022/07/12 10:24:51;;;;;;;7.28;1.45;;;27.40;42.50;;;;;;6246332;22;20024;-74
2022/07/12 10:27:17;;;;;;;4.20;1.08;;;27.50;44.20;;;;;;6245937;22;20023;-67
2022/07/12 10:30:16;;;;;;;3.85;1.77;;;27.50;44.20;;;;;;6246280;22;20004;-67
2022/07/12 10:32:44;;;;;;;4.30;1.45;;;27.60;44.70;;;;;;6241890;22;20441;-67
2022/07/12 10:35:19;;;;;;;4.22;1.30;;;27.70;44.20;;;;;;6245946;22;20415;-67
2022/07/12 10:38:18;;;;;;;42.20;6.63;;;27.90;43.30;;;;;;6246205;22;20022;-68
2022/07/12 10:40:46;;;;;;;3.33;0.98;;;28.00;43.90;;;;;;6211626;22;20004;-67
2022/07/12 10:43:16;;;;;;;7.97;1.85;;;28.00;43.10;;;;;;6246084;22;20339;-67
2022/07/12 10:45:44;;;;;;;8.20;1.30;;;27.90;44.20;;;;;;6245891;22;20450;-67
2022/07/12 10:48:12;;;;;;;5.07;1.02;;;27.90;43.30;;;;;;6245843;22;20075;-68
2022/07/12 10:50:41;;;;;;;1.58;0.95;;;28.00;43.40;;;;;;6246027;22;20031;-67
2022/07/12 10:53:22;;;;;;;2.78;1.00;;;28.00;43.20;;;;;;6245827;22;20007;-68
2022/07/12 10:56:07;;;;;;;4.35;1.35;;;28.10;44.10;;;;;;6246303;22;20054;-67
2022/07/12 10:58:52;;;;;;;7.60;1.42;;;28.20;44.30;;;;;;6245786;22;20004;-67
2022/07/12 11:01:21;;;;;;;4.53;0.93;;;28.30;43.90;;;;;;6246002;22;20058;-67
2022/07/12 11:03:53;;;;;;;3.90;1.02;;;28.30;44.20;;;;;;6245631;22;20308;-67
2022/07/12 11:06:21;;;;;;;8.88;1.27;;;28.40;44.60;;;;;;6246421;22;20411;-67
2022/07/12 11:09:10;;;;;;;3.75;1.42;;;28.50;45.10;;;;;;6245767;22;20011;-68
2022/07/12 11:11:48;;;;;;;6.88;1.63;;;28.60;45.10;;;;;;6245654;22;20304;-67
2022/07/12 11:14:26;;;;;;;6.38;1.25;;;28.70;45.50;;;;;;6245658;22;20004;-67
2022/07/12 11:16:54;;;;;;;5.63;1.20;;;28.80;45.90;;;;;;6245966;22;20004;-67
2022/07/12 11:19:23;;;;;;;3.20;1.33;;;28.90;44.90;;;;;;6245794;22;20008;-67
2022/07/12 11:21:55;;;;;;;16.58;1.23;;;29.00;45.50;;;;;;6246160;22;20006;-68
2022/07/12 11:24:29;;;;;;;2.17;1.05;;;29.00;45.20;;;;;;6245634;22;20012;-67
2022/07/12 11:26:54;;;;;;;5.97;1.15;;;29.10;45.00;;;;;;6245925;22;20433;-67
2022/07/12 11:29:21;;;;;;;7.72;1.20;;;29.20;44.50;;;;;;6245684;22;20000;-67
2022/07/12 11:31:47;;;;;;;4.25;1.55;;;29.20;44.70;;;;;;6245619;22;19996;-67
2022/07/12 11:34:24;;;;;;;7.35;2.10;;;29.20;44.90;;;;;;6246264;22;20316;-67
2022/07/12 11:36:58;;;;;;;5.15;1.35;;;29.10;44.40;;;;;;6245934;22;20006;-67
2022/07/12 11:39:39;;;;;;;2.83;1.02;;;29.00;44.60;;;;;;6245491;22;20004;-68
2022/07/12 11:42:06;;;;;;;2.55;1.20;;;28.90;45.00;;;;;;6245866;22;20027;-67
2022/07/12 11:44:47;;;;;;;3.60;1.20;;;28.80;45.20;;;;;;6245675;22;20020;-67
2022/07/12 11:47:14;;;;;;;2.80;1.27;;;28.70;45.60;;;;;;6245891;22;20077;-67
2022/07/12 11:49:45;;;;;;;3.78;1.23;;;28.70;45.50;;;;;;6245934;22;20331;-68
2022/07/12 11:52:15;;;;;;;7.07;1.15;;;28.60;45.60;;;;;;6245514;22;20000;-67
2022/07/12 11:54:40;;;;;;;8.00;1.30;;;28.50;45.60;;;;;;6245113;22;20423;-66
2022/07/12 11:57:06;;;;;;;3.00;1.23;;;28.40;45.90;;;;;;6245652;22;20043;-67
2022/07/12 11:59:32;;;;;;;3.00;0.90;;;28.40;46.60;;;;;;6245496;22;20103;-67
2022/07/12 12:02:08;;;;;;;4.35;1.23;;;28.40;46.90;;;;;;6245310;23;19997;-67
2022/07/12 12:04:52;;;;;;;4.05;1.30;;;28.50;47.10;;;;;;6245864;22;20022;-67
2022/07/12 12:07:19;;;;;;;1.85;1.10;;;28.50;46.70;;;;;;6246131;22;20001;-67
2022/07/12 12:10:05;;;;;;;7.95;1.08;;;28.60;46.20;;;;;;6245798;22;20007;-67
2022/07/12 12:12:48;;;;;;;4.40;1.27;;;28.70;46.10;;;;;;6245088;22;20000;-66
2022/07/12 12:15:19;;;;;;;4.68;1.10;;;28.80;45.60;;;;;;6245982;22;20354;-67
2022/07/12 12:18:05;;;;;;;2.45;1.27;;;29.00;45.10;;;;;;6245494;22;20038;-67
2022/07/12 12:20:33;;;;;;;1.92;0.90;;;29.10;45.10;;;;;;6245468;22;20442;-66
2022/07/12 12:23:00;;;;;;;4.35;1.00;;;29.10;44.10;;;;;;6243197;22;20004;-67
2022/07/12 12:25:29;;;;;;;3.38;1.10;;;29.20;44.20;;;;;;6243580;22;20065;-67
2022/07/12 12:28:01;;;;;;;4.75;1.13;;;29.20;44.40;;;;;;6244869;22;20007;-67
2022/07/12 12:30:29;;;;;;;3.22;1.10;;;29.30;44.40;;;;;;6246280;22;20442;-67
2022/07/12 12:33:00;;;;;;;8.60;0.90;;;29.40;43.30;;;;;;6246968;22;20000;-67
2022/07/12 12:35:32;;;;;;;5.05;1.00;;;29.40;43.80;;;;;;6246248;22;20026;-67
2022/07/12 12:38:01;;;;;;;3.70;1.10;;;29.40;43.60;;;;;;6246200;22;20000;-67
2022/07/12 12:40:31;;;;;;;6.15;1.40;;;29.50;43.60;;;;;;6245737;22;20062;-66
2022/07/12 12:43:14;;;;;;;3.58;1.75;;;29.50;44.20;;;;;;6246392;22;20435;-67
2022/07/12 12:45:51;;;;;;;7.88;1.02;;;29.60;43.80;;;;;;6247120;22;20016;-67
2022/07/12 12:48:24;;;;;;;4.20;1.10;;;29.60;43.60;;;;;;6246281;22;20008;-67
2022/07/12 12:50:52;;;;;;;2.58;0.80;;;29.70;43.90;;;;;;6244970;22;19996;-67
2022/07/12 12:53:23;;;;;;;3.95;1.20;;;29.70;43.50;;;;;;6243602;22;20004;-67
2022/07/12 12:55:51;;;;;;;3.20;1.00;;;29.80;43.80;;;;;;6244112;22;20457;-67
2022/07/12 12:58:18;;;;;;;4.55;1.20;;;29.80;43.90;;;;;;6245413;22;20019;-67
2022/07/12 13:00:46;;;;;;;15.52;1.58;;;29.70;44.00;;;;;;6243505;22;20016;-67
2022/07/12 13:03:13;;;;;;;9.40;1.52;;;29.70;44.30;;;;;;6244255;22;20010;-66
2022/07/12 13:05:40;;;;;;;11.00;1.20;;;29.80;44.10;;;;;;6244905;23;20324;-66
2022/07/12 13:08:08;;;;;;;1.65;0.98;;;29.80;44.10;;;;;;6246498;22;20028;-67
2022/07/12 13:10:33;;;;;;;2.92;1.10;;;29.80;43.40;;;;;;6246845;22;20445;-67
2022/07/12 13:13:01;;;;;;;2.58;0.98;;;29.90;43.20;;;;;;6247177;22;20004;-66
2022/07/12 13:15:27;;;;;;;3.75;1.58;;;29.90;43.60;;;;;;6246704;22;19996;-67
2022/07/12 13:17:53;;;;;;;3.65;1.20;;;30.00;43.40;;;;;;6246507;22;20322;-67
2022/07/12 13:20:19;;;;;;;3.67;1.30;;;30.00;43.80;;;;;;6246138;22;20334;-67
2022/07/12 13:22:45;;;;;;;5.85;1.00;;;30.00;44.00;;;;;;6245289;22;20004;-67
2022/07/12 13:25:12;;;;;;;1.73;1.05;;;30.10;43.50;;;;;;6242292;22;20066;-67
2022/07/12 13:27:39;;;;;;;4.22;0.98;;;30.10;42.90;;;;;;6242146;22;20050;-66
2022/07/12 13:30:07;;;;;;;9.10;1.00;;;30.10;42.90;;;;;;6243452;22;20050;-65
2022/07/12 13:32:34;;;;;;;4.32;1.20;;;30.10;42.90;;;;;;6245562;22;20422;-67
2022/07/12 13:35:00;;;;;;;3.80;1.27;;;30.10;42.80;;;;;;6245559;22;20011;-66
2022/07/12 13:37:27;;;;;;;5.63;1.17;;;30.10;42.50;;;;;;6245822;22;20011;-65
2022/07/12 13:40:11;;;;;;;6.50;1.40;;;30.10;42.50;;;;;;6245696;22;20058;-66
2022/07/12 13:42:48;;;;;;;3.78;1.10;;;30.10;43.00;;;;;;6245374;22;20000;-65
2022/07/12 13:45:21;;;;;;;11.05;1.65;;;30.20;42.30;;;;;;6245441;22;20023;-65
2022/07/12 13:47:47;;;;;;;3.80;1.08;;;30.10;42.30;;;;;;6244892;22;20007;-65
2022/07/12 13:50:14;;;;;;;2.20;0.93;;;30.10;42.90;;;;;;6245582;22;20427;-65
2022/07/12 13:52:41;;;;;;;6.55;1.20;;;30.10;42.60;;;;;;6245143;22;20412;-65
2022/07/12 13:55:09;;;;;;;4.18;0.80;;;30.10;42.90;;;;;;6245718;22;20004;-65
2022/07/12 13:57:36;;;;;;;10.15;1.30;;;30.00;43.30;;;;;;6246677;22;20008;-65
2022/07/12 14:00:11;;;;;;;2.50;1.10;;;30.10;43.60;;;;;;6245672;22;20054;-64
2022/07/12 14:02:38;;;;;;;3.38;1.00;;;30.00;43.30;;;;;;6246053;22;20000;-65
2022/07/12 14:05:05;;;;;;;2.15;1.17;;;30.00;43.70;;;;;;6244718;22;20016;-65
2022/07/12 14:07:32;;;;;;;3.58;1.20;;;30.00;44.20;;;;;;6246300;22;20058;-65
2022/07/12 14:09:59;;;;;;;3.10;1.13;;;29.90;44.20;;;;;;6246700;22;20008;-65
2022/07/12 14:12:25;;;;;;;3.50;1.10;;;29.90;44.50;;;;;;6246352;22;20058;-65
2022/07/12 14:15:36;;;;;;;7.97;1.20;;;30.00;44.50;;;;;;6246156;22;20011;-67
2022/07/12 14:17:44;;;;;;;3.40;1.20;;;30.00;44.50;;;;;;6240076;22;20004;-65
2022/07/12 14:20:12;;;;;;;5.13;1.27;;;29.90;44.20;;;;;;6246229;22;20004;-65
2022/07/12 14:22:38;;;;;;;6.65;1.20;;;29.80;44.50;;;;;;6245637;22;20000;-66
2022/07/12 14:25:05;;;;;;;4.20;1.20;;;29.70;44.50;;;;;;6246423;22;20325;-65
2022/07/12 14:27:32;;;;;;;2.83;1.10;;;29.70;44.80;;;;;;6245837;22;20024;-65
2022/07/12 14:29:57;;;;;;;2.78;1.10;;;29.60;45.10;;;;;;6246208;22;20026;-65
2022/07/12 14:32:23;;;;;;;4.00;1.02;;;29.50;45.20;;;;;;6245424;22;19992;-65
2022/07/12 14:34:49;;;;;;;4.40;1.10;;;29.50;45.40;;;;;;6245944;22;20000;-65
2022/07/12 14:37:15;;;;;;;4.68;1.20;;;29.40;45.80;;;;;;6246273;22;20011;-65
2022/07/12 14:39:41;;;;;;;3.70;1.00;;;29.40;46.00;;;;;;6245519;22;20506;-65
2022/07/12 14:42:07;;;;;;;3.03;1.10;;;29.40;45.90;;;;;;6245773;22;20359;-66
2022/07/12 14:44:33;;;;;;;27.25;1.33;;;29.50;45.90;;;;;;6245657;22;20411;-65
2022/07/12 14:46:58;;;;;;;4.45;1.30;;;29.60;45.60;;;;;;6245509;22;20003;-65
2022/07/12 14:49:24;;;;;;;1.55;1.00;;;29.60;45.30;;;;;;6246381;22;20012;-67
2022/07/12 14:51:50;;;;;;;2.08;1.30;;;29.60;45.40;;;;;;6245852;22;19996;-65
2022/07/12 14:54:16;;;;;;;5.88;1.30;;;29.50;45.50;;;;;;6245447;22;20004;-65
2022/07/12 14:56:42;;;;;;;3.33;1.20;;;29.50;45.50;;;;;;6245682;22;20063;-65
2022/07/12 14:59:08;;;;;;;10.63;2.50;;;29.50;45.80;;;;;;6244771;22;20020;-66
2022/07/12 15:01:34;;;;;;;2.53;1.05;;;29.40;46.00;;;;;;6244628;22;20370;-65
2022/07/12 15:03:59;;;;;;;6.47;1.20;;;29.30;45.80;;;;;;6245117;22;20020;-66
2022/07/12 15:06:26;;;;;;;5.63;1.38;;;29.20;46.10;;;;;;6245156;22;20431;-65
2022/07/12 15:08:55;;;;;;;5.38;1.40;;;29.10;46.90;;;;;;6244003;22;20007;-64
2022/07/12 15:11:21;;;;;;;10.15;1.70;;;29.10;47.80;;;;;;6244952;22;20027;-65
2022/07/12 15:13:47;;;;;;;3.95;1.30;;;29.00;48.20;;;;;;6245251;22;20058;-65
2022/07/12 15:16:13;;;;;;;7.65;1.50;;;28.90;49.10;;;;;;6244977;22;20000;-65
2022/07/12 15:18:39;;;;;;;7.07;1.73;;;28.90;49.60;;;;;;6244864;22;20060;-65
2022/07/12 15:21:05;;;;;;;3.60;1.10;;;28.80;50.00;;;;;;6245082;22;20063;-65
2022/07/12 15:23:31;;;;;;;2.00;1.05;;;28.70;49.60;;;;;;6244874;22;20000;-65
2022/07/12 15:25:57;;;;;;;1.50;1.05;;;28.60;49.60;;;;;;6245899;22;20008;-66
2022/07/12 15:28:26;;;;;;;5.95;1.30;;;28.50;50.10;;;;;;6246088;22;20004;-65
2022/07/12 15:30:52;;;;;;;2.63;1.25;;;28.50;50.50;;;;;;6245427;22;20078;-65
2022/07/12 15:33:18;;;;;;;4.35;1.45;;;28.50;51.30;;;;;;6245664;22;20004;-65
2022/07/12 15:35:44;;;;;;;5.30;1.30;;;28.40;51.60;;;;;;6245567;22;20000;-65
2022/07/12 15:38:10;;;;;;;5.32;1.20;;;28.40;51.60;;;;;;6245688;22;20330;-64
2022/07/12 15:40:37;;;;;;;2.50;1.17;;;28.30;51.60;;;;;;6245536;22;20072;-64
2022/07/12 15:43:03;;;;;;;2.40;1.27;;;28.30;52.00;;;;;;6245097;22;20000;-64
2022/07/12 15:45:29;;;;;;;2.65;1.52;;;28.20;52.50;;;;;;6245317;22;20016;-64
2022/07/12 15:47:55;;;;;;;5.40;1.30;;;28.20;53.20;;;;;;6245479;22;20029;-65
2022/07/12 15:50:20;;;;;;;2.13;1.40;;;28.10;53.70;;;;;;6245287;22;20051;-65
2022/07/12 15:55:31;;;;;;;7.22;1.65;;;27.90;54.60;;;;;;6245583;23;20014;-65
2022/07/12 15:57:58;;;;;;;3.83;1.50;;;27.90;55.10;;;;;;6247864;22;20062;-64
2022/07/12 16:00:24;;;;;;;8.20;2.00;;;27.80;56.00;;;;;;6246766;22;20015;-67
2022/07/12 16:02:51;;;;;;;4.35;1.67;;;27.70;56.60;;;;;;6247734;22;20008;-65
2022/07/12 16:05:17;;;;;;;5.07;1.50;;;27.60;57.20;;;;;;6247082;22;20435;-65
2022/07/12 16:07:43;;;;;;;5.10;1.58;;;27.50;56.90;;;;;;6247238;22;20030;-65
2022/07/12 16:10:08;;;;;;;7.03;1.40;;;27.30;58.20;;;;;;6247195;22;20008;-65
2022/07/12 16:12:35;;;;;;;3.00;1.40;;;27.20;58.20;;;;;;6247706;22;20046;-65
2022/07/12 16:15:00;;;;;;;2.88;1.23;;;27.10;59.00;;;;;;6247126;22;20004;-64
2022/07/12 16:17:26;;;;;;;5.10;1.15;;;26.90;59.20;;;;;;6247441;22;20046;-66
2022/07/12 16:19:52;;;;;;;3.00;1.15;;;26.80;59.00;;;;;;6247521;22;20055;-65
2022/07/12 16:22:18;;;;;;;5.72;1.35;;;26.60;58.40;;;;;;6246848;22;20000;-65
2022/07/12 16:24:44;;;;;;;3.60;1.17;;;26.50;58.50;;;;;;6247046;22;20012;-64
2022/07/12 16:27:09;;;;;;;4.28;1.45;;;26.40;58.50;;;;;;6247418;22;20008;-65
2022/07/12 16:29:35;;;;;;;4.10;1.50;;;26.30;59.30;;;;;;6247431;22;20030;-67
2022/07/12 16:32:01;;;;;;;3.50;1.50;;;26.20;60.10;;;;;;6246946;22;20042;-65
2022/07/12 16:34:27;;;;;;;3.40;1.40;;;26.10;59.90;;;;;;6246910;22;20008;-64
2022/07/12 16:36:52;;;;;;;4.70;1.40;;;26.10;60.30;;;;;;6247015;22;20020;-64
2022/07/12 16:39:18;;;;;;;3.97;1.40;;;26.10;60.30;;;;;;6246857;22;20011;-64
2022/07/12 16:41:44;;;;;;;2.50;1.10;;;26.20;60.30;;;;;;6247376;22;20010;-65
2022/07/12 16:44:10;;;;;;;3.15;1.10;;;26.20;58.90;;;;;;6247433;22;20008;-66
2022/07/12 16:46:36;;;;;;;4.88;1.05;;;26.20;58.40;;;;;;6247188;22;20050;-66
2022/07/12 16:49:02;;;;;;;2.60;1.13;;;26.30;58.10;;;;;;6246553;22;20415;-67
2022/07/12 16:51:29;;;;;;;3.10;1.42;;;26.30;57.60;;;;;;6247437;22;20496;-66
2022/07/12 16:53:56;;;;;;;3.78;1.52;;;26.40;57.50;;;;;;6245709;22;20469;-67
2022/07/12 16:56:26;;;;;;;1.80;1.08;;;26.40;57.60;;;;;;6243796;22;20363;-66
2022/07/12 16:58:52;;;;;;;2.83;1.38;;;26.50;57.60;;;;;;6243989;22;20319;-66
2022/07/12 17:01:22;;;;;;;4.47;1.33;;;26.50;56.70;;;;;;6247264;22;20059;-68
2022/07/12 17:03:50;;;;;;;2.25;1.20;;;26.60;56.50;;;;;;6246714;22;20058;-66
2022/07/12 17:06:16;;;;;;;1.65;1.00;;;26.70;56.00;;;;;;6246539;22;20091;-66
2022/07/12 17:08:43;;;;;;;4.18;1.30;;;26.70;55.60;;;;;;6246525;22;20378;-66
2022/07/12 17:11:09;;;;;;;1.55;1.00;;;26.80;55.10;;;;;;6246762;22;20023;-67